createdAt,value
2023-02-11T00:00:59.519Z,6.55
2023-02-11T00:03:26.528Z,6.03
2023-02-11T00:06:05.204Z,5.85
2023-02-11T00:08:32.156Z,5.70
2023-02-11T00:10:59.018Z,6.78
2023-02-11T00:13:26.291Z,6.03
2023-02-11T00:15:54.152Z,5.72
2023-02-11T00:18:21.242Z,5.95
2023-02-11T00:20:48.250Z,5.55
2023-02-11T00:23:15.116Z,6.07
2023-02-11T00:25:43.219Z,6.65
2023-02-11T00:28:10.793Z,6.00
2023-02-11T00:30:37.847Z,5.43
2023-02-11T00:33:04.855Z,5.25
2023-02-11T00:35:31.755Z,4.45
2023-02-11T00:37:58.619Z,6.50
2023-02-11T00:40:25.742Z,5.13
2023-02-11T00:42:52.612Z,6.30
2023-02-11T00:45:21.289Z,4.60
2023-02-11T00:47:48.426Z,5.10
2023-02-11T00:50:15.728Z,5.32
2023-02-11T00:52:42.625Z,5.07
2023-02-11T00:55:09.461Z,5.22
2023-02-11T00:57:36.742Z,5.05
2023-02-11T01:00:05.626Z,4.93
2023-02-11T01:02:32.441Z,5.65
2023-02-11T01:05:00.184Z,5.43
2023-02-11T01:07:28.400Z,5.55
2023-02-11T01:09:55.243Z,5.30
2023-02-11T01:12:22.657Z,5.30
2023-02-11T01:14:49.645Z,4.90
2023-02-11T01:17:16.616Z,5.78
2023-02-11T01:19:43.456Z,5.75
2023-02-11T01:22:10.379Z,5.97
2023-02-11T01:24:37.228Z,4.88
2023-02-11T01:27:04.371Z,6.53
2023-02-11T01:29:31.211Z,5.28
2023-02-11T01:31:58.091Z,5.00
2023-02-11T01:34:24.948Z,5.40
2023-02-11T01:36:56.247Z,5.07
2023-02-11T01:39:23.042Z,5.55
2023-02-11T01:41:50.130Z,6.05
2023-02-11T01:44:27.938Z,5.05
2023-02-11T01:46:55.404Z,4.90
2023-02-11T01:49:27.235Z,5.00
2023-02-11T01:52:01.255Z,5.15
2023-02-11T01:54:51.657Z,5.72
2023-02-11T01:57:22.604Z,6.07
2023-02-11T02:00:01.590Z,5.13
2023-02-11T02:03:01.559Z,5.63
2023-02-11T02:05:37.253Z,5.75
2023-02-11T02:08:29.499Z,6.00
2023-02-11T02:10:58.516Z,5.68
2023-02-11T02:13:25.935Z,5.85
2023-02-11T02:16:08.499Z,7.82
2023-02-11T02:18:48.964Z,5.63
2023-02-11T02:21:37.515Z,6.65
2023-02-11T02:24:22.748Z,6.38
2023-02-11T02:27:11.048Z,6.18
2023-02-11T02:30:11.622Z,6.72
2023-02-11T02:32:53.683Z,7.45
2023-02-11T02:35:29.810Z,7.40
2023-02-11T02:41:01.633Z,6.63
2023-02-11T02:43:30.348Z,7.15
2023-02-11T02:46:17.030Z,7.10
2023-02-11T02:48:45.069Z,7.65
2023-02-11T02:51:20.585Z,7.43
2023-02-11T02:54:09.440Z,7.70
2023-02-11T02:56:38.983Z,7.80
2023-02-11T02:59:05.814Z,8.23
2023-02-11T03:01:54.503Z,9.02
2023-02-11T03:04:29.821Z,8.40
2023-02-11T03:06:56.670Z,8.40
2023-02-11T03:09:58.738Z,8.50
2023-02-11T03:12:28.948Z,7.90
2023-02-11T03:14:55.899Z,8.35
2023-02-11T03:17:25.051Z,8.70
2023-02-11T03:19:52.275Z,10.20
2023-02-11T03:22:34.988Z,8.15
2023-02-11T03:25:03.126Z,9.13
2023-02-11T03:27:49.843Z,9.00
2023-02-11T03:30:33.056Z,8.73
2023-02-11T03:33:07.155Z,9.40
2023-02-11T03:35:41.990Z,10.23
2023-02-11T03:38:23.594Z,9.30
2023-02-11T03:40:51.440Z,9.60
2023-02-11T03:43:23.130Z,9.20
2023-02-11T03:45:53.176Z,9.82
2023-02-11T03:48:36.303Z,9.23
2023-02-11T03:51:07.518Z,9.45
2023-02-11T03:53:35.079Z,9.95
2023-02-11T03:56:05.910Z,9.90
2023-02-11T03:58:32.774Z,10.02
2023-02-11T04:00:59.677Z,10.20
2023-02-11T04:03:26.596Z,10.10
2023-02-11T04:05:54.232Z,10.38
2023-02-11T04:08:21.319Z,9.93
2023-02-11T04:10:48.096Z,10.50
2023-02-11T04:13:15.292Z,11.05
2023-02-11T04:15:42.315Z,11.07
2023-02-11T04:18:09.139Z,10.70
2023-02-11T04:20:36.190Z,10.45
2023-02-11T04:23:03.178Z,11.00
2023-02-11T04:25:30.154Z,10.80
2023-02-11T04:27:57.141Z,10.95
2023-02-11T04:30:24.161Z,10.77
2023-02-11T04:32:51.006Z,10.73
2023-02-11T04:35:18.031Z,11.40
2023-02-11T04:37:44.798Z,10.70
2023-02-11T04:40:12.489Z,10.70
2023-02-11T04:42:39.322Z,10.82
2023-02-11T04:45:07.856Z,10.60
2023-02-11T04:47:34.887Z,10.63
2023-02-11T04:50:01.771Z,11.20
2023-02-11T04:52:28.581Z,10.90
2023-02-11T04:54:56.609Z,10.52
2023-02-11T04:57:23.599Z,10.90
2023-02-11T04:59:50.370Z,11.35
2023-02-11T05:02:17.151Z,11.77
2023-02-11T05:04:45.535Z,12.35
2023-02-11T05:07:12.430Z,12.07
2023-02-11T05:09:39.284Z,11.73
2023-02-11T05:12:06.339Z,11.50
2023-02-11T05:14:33.442Z,12.15
2023-02-11T05:17:00.347Z,12.60
2023-02-11T05:19:27.995Z,12.65
2023-02-11T05:22:02.556Z,13.80
2023-02-11T05:24:34.782Z,12.25
2023-02-11T05:27:02.222Z,12.32
2023-02-11T05:29:29.122Z,12.65
2023-02-11T05:31:56.051Z,13.48
2023-02-11T05:34:22.864Z,13.15
2023-02-11T05:36:49.697Z,13.40
2023-02-11T05:39:16.550Z,12.73
2023-02-11T05:41:44.966Z,13.45
2023-02-11T05:44:11.758Z,13.70
2023-02-11T05:46:38.751Z,14.48
2023-02-11T05:49:05.704Z,14.10
2023-02-11T05:51:32.588Z,14.05
2023-02-11T05:53:59.471Z,14.52
2023-02-11T05:56:26.517Z,14.48
2023-02-11T05:58:53.350Z,14.75
2023-02-11T06:01:20.286Z,14.93
2023-02-11T06:03:50.047Z,14.73
2023-02-11T06:06:17.587Z,14.73
2023-02-11T06:08:44.514Z,16.02
2023-02-11T06:11:11.408Z,16.70
2023-02-11T06:13:38.289Z,15.25
2023-02-11T06:16:05.628Z,16.73
2023-02-11T06:18:33.669Z,16.27
2023-02-11T06:21:00.882Z,17.92
2023-02-11T06:23:30.257Z,17.17
2023-02-11T06:26:02.168Z,16.88
2023-02-11T06:28:31.332Z,18.40
2023-02-11T06:30:59.235Z,19.30
2023-02-11T06:33:26.052Z,18.00
2023-02-11T06:35:53.123Z,19.38
2023-02-11T06:38:20.069Z,18.88
2023-02-11T06:40:50.285Z,18.33
2023-02-11T06:43:17.410Z,19.33
2023-02-11T06:45:44.630Z,19.20
2023-02-11T06:48:11.519Z,20.10
2023-02-11T06:50:38.606Z,20.63
2023-02-11T06:53:05.444Z,19.98
2023-02-11T06:55:34.702Z,20.50
2023-02-11T06:58:01.593Z,20.52
2023-02-11T07:00:29.698Z,21.40
2023-02-11T07:02:57.152Z,20.73
2023-02-11T07:05:24.316Z,22.35
2023-02-11T07:07:51.146Z,21.58
2023-02-11T07:10:18.007Z,21.92
2023-02-11T07:12:44.969Z,21.13
2023-02-11T07:15:11.797Z,22.17
2023-02-11T07:17:38.639Z,21.52
2023-02-11T07:20:05.889Z,22.50
2023-02-11T07:22:34.992Z,20.98
2023-02-11T07:25:01.838Z,21.40
2023-02-11T07:27:28.656Z,22.05
2023-02-11T07:29:55.518Z,21.25
2023-02-11T07:32:22.391Z,21.63
2023-02-11T07:34:49.681Z,21.45
2023-02-11T07:37:16.536Z,23.63
2023-02-11T07:39:43.403Z,20.70
2023-02-11T07:42:10.394Z,22.70
2023-02-11T07:44:37.285Z,23.33
2023-02-11T07:47:04.350Z,21.95
2023-02-11T07:49:31.275Z,23.55
2023-02-11T07:51:58.129Z,23.48
2023-02-11T07:54:24.971Z,23.85
2023-02-11T07:56:53.040Z,23.50
2023-02-11T07:59:19.988Z,23.52
2023-02-11T08:01:46.927Z,23.15
2023-02-11T08:04:13.982Z,23.52
2023-02-11T08:06:42.688Z,25.75
2023-02-11T08:09:13.597Z,25.80
2023-02-11T08:11:41.672Z,26.70
2023-02-11T08:14:09.188Z,31.85
2023-02-11T08:16:38.807Z,32.90
2023-02-11T08:19:10.432Z,45.78
2023-02-11T08:21:37.476Z,33.15
2023-02-11T08:24:04.502Z,36.72
2023-02-11T08:26:34.850Z,45.13
2023-02-11T08:29:05.396Z,41.85
2023-02-11T08:31:37.532Z,38.63
2023-02-11T08:34:04.670Z,33.40
2023-02-11T08:36:34.266Z,39.72
2023-02-11T08:39:18.210Z,55.80
2023-02-11T08:41:48.887Z,56.08
2023-02-11T08:44:16.543Z,39.42
2023-02-11T08:46:43.466Z,35.58
2023-02-11T08:49:10.444Z,31.42
2023-02-11T08:51:37.547Z,30.75
2023-02-11T08:54:04.523Z,29.88
2023-02-11T08:56:33.630Z,31.13
2023-02-11T08:59:00.634Z,30.40
2023-02-11T09:01:30.082Z,29.83
2023-02-11T09:03:58.113Z,31.70
2023-02-11T09:06:26.392Z,33.05
2023-02-11T09:08:55.690Z,33.47
2023-02-11T09:11:30.236Z,32.58
2023-02-11T09:13:57.260Z,32.42
2023-02-11T09:16:27.289Z,31.63
2023-02-11T09:18:56.163Z,35.08
2023-02-11T09:21:23.014Z,33.22
2023-02-11T09:23:49.932Z,32.65
2023-02-11T09:26:31.990Z,33.90
2023-02-11T09:28:59.628Z,33.00
2023-02-11T09:31:28.988Z,33.20
2023-02-11T09:33:58.520Z,33.15
2023-02-11T09:36:29.560Z,30.45
2023-02-11T09:38:59.390Z,31.55
2023-02-11T09:41:55.418Z,29.05
2023-02-11T09:44:32.578Z,32.92
2023-02-11T09:47:03.018Z,33.00
2023-02-11T09:49:51.590Z,31.67
2023-02-11T09:52:38.312Z,35.50
2023-02-11T09:55:29.341Z,33.80
2023-02-11T09:57:57.764Z,32.90
2023-02-11T10:00:32.496Z,33.72
2023-02-11T10:03:08.369Z,34.05
2023-02-11T10:05:50.226Z,32.58
2023-02-11T10:08:25.889Z,31.90
2023-02-11T10:10:54.210Z,31.98
2023-02-11T10:13:42.769Z,32.75
2023-02-11T10:16:37.557Z,32.78
2023-02-11T10:19:34.469Z,32.65
2023-02-11T10:22:11.746Z,31.50
2023-02-11T10:24:41.476Z,32.03
2023-02-11T10:27:30.838Z,31.83
2023-02-11T10:30:10.149Z,32.20
2023-02-11T10:32:53.507Z,32.08
2023-02-11T10:35:22.800Z,33.67
2023-02-11T10:37:49.828Z,32.60
2023-02-11T10:40:29.138Z,33.58
2023-02-11T10:42:59.724Z,32.63
2023-02-11T10:45:39.472Z,32.97
2023-02-11T10:48:38.586Z,32.65
2023-02-11T10:51:14.799Z,32.22
2023-02-11T10:53:42.115Z,32.13
2023-02-11T10:56:12.749Z,33.60
2023-02-11T10:58:54.898Z,31.92
2023-02-11T11:01:24.730Z,31.02
2023-02-11T11:03:53.098Z,32.67
2023-02-11T11:06:33.705Z,32.80
2023-02-11T11:09:01.145Z,30.10
2023-02-11T11:11:28.029Z,30.83
2023-02-11T11:13:56.207Z,31.45
2023-02-11T11:16:24.736Z,32.58
2023-02-11T11:18:54.404Z,38.10
2023-02-11T11:21:35.685Z,34.17
2023-02-11T11:24:03.976Z,32.13
2023-02-11T11:26:46.771Z,31.58
2023-02-11T11:29:18.572Z,32.38
2023-02-11T11:32:01.349Z,32.60
2023-02-11T11:34:41.951Z,34.00
2023-02-11T11:37:20.110Z,33.38
2023-02-11T11:40:13.304Z,33.30
2023-02-11T11:42:40.485Z,34.20
2023-02-11T11:45:17.648Z,33.45
2023-02-11T11:47:56.575Z,34.67
2023-02-11T11:50:45.972Z,34.28
2023-02-11T11:53:21.085Z,33.20
2023-02-11T11:56:09.853Z,34.03
2023-02-11T11:58:36.894Z,33.72
2023-02-11T12:01:03.628Z,34.38
2023-02-11T12:04:07.570Z,35.70
2023-02-11T12:07:00.677Z,36.50
2023-02-11T12:09:35.686Z,34.35
2023-02-11T12:12:27.057Z,34.03
2023-02-11T12:15:12.035Z,34.45
2023-02-11T12:18:11.228Z,33.40
2023-02-11T12:21:08.848Z,34.47
2023-02-11T12:24:07.362Z,35.13
2023-02-11T12:26:53.261Z,34.47
2023-02-11T12:31:52.491Z,32.60
2023-02-11T12:34:43.871Z,34.88
2023-02-11T12:37:16.579Z,37.63
2023-02-11T12:39:50.593Z,34.25
2023-02-11T12:42:41.947Z,35.15
2023-02-11T12:45:08.838Z,33.00
2023-02-11T12:47:44.634Z,33.63
2023-02-11T12:50:39.018Z,34.83
2023-02-11T12:53:37.983Z,34.22
2023-02-11T12:56:45.382Z,32.95
2023-02-11T12:59:25.868Z,37.08
2023-02-11T13:01:53.752Z,34.70
2023-02-11T13:04:30.213Z,33.22
2023-02-11T13:07:02.490Z,31.67
2023-02-11T13:09:36.032Z,31.35
2023-02-11T13:12:27.146Z,32.40
2023-02-11T13:14:59.044Z,30.65
2023-02-11T13:17:50.528Z,31.73
2023-02-11T13:20:30.731Z,30.63
2023-02-11T13:23:21.540Z,29.90
2023-02-11T13:25:57.546Z,30.20
2023-02-11T13:28:46.704Z,29.98
2023-02-11T13:31:16.514Z,31.13
2023-02-11T13:33:44.392Z,30.02
2023-02-11T13:36:14.576Z,30.35
2023-02-11T13:38:51.030Z,29.73
2023-02-11T13:41:27.602Z,29.52
2023-02-11T13:43:58.380Z,28.90
2023-02-11T13:46:27.442Z,30.15
2023-02-11T13:48:54.784Z,30.65
2023-02-11T13:51:42.892Z,29.65
2023-02-11T13:54:27.572Z,28.73
2023-02-11T13:57:29.948Z,31.35
2023-02-11T14:00:03.230Z,29.08
2023-02-11T14:02:53.522Z,30.60
2023-02-11T14:05:48.134Z,30.90
2023-02-11T14:08:52.419Z,29.53
2023-02-11T14:11:35.238Z,31.35
2023-02-11T14:14:33.499Z,31.02
2023-02-11T14:17:00.941Z,30.25
2023-02-11T14:19:34.777Z,31.55
2023-02-11T14:22:18.893Z,31.33
2023-02-11T14:25:00.990Z,32.05
2023-02-11T14:27:27.804Z,32.75
2023-02-11T14:30:43.665Z,32.17
2023-02-11T14:33:23.399Z,31.83
2023-02-11T14:36:39.667Z,32.20
2023-02-11T14:39:27.657Z,31.13
2023-02-11T14:41:54.779Z,32.25
2023-02-11T14:44:30.242Z,31.73
2023-02-11T14:46:58.093Z,31.70
2023-02-11T14:49:34.827Z,31.20
2023-02-11T14:52:43.602Z,31.70
2023-02-11T14:55:33.192Z,31.65
2023-02-11T14:58:32.581Z,33.47
2023-02-11T15:01:09.325Z,31.95
2023-02-11T15:03:41.496Z,32.47
2023-02-11T15:06:18.843Z,34.42
2023-02-11T15:08:55.212Z,34.25
2023-02-11T15:11:25.235Z,34.10
2023-02-11T15:13:55.092Z,31.75
2023-02-11T15:16:28.639Z,32.63
2023-02-11T15:19:01.393Z,33.22
2023-02-11T15:21:31.041Z,31.08
2023-02-11T15:24:00.335Z,32.35
2023-02-11T15:26:27.731Z,31.73
2023-02-11T15:28:56.215Z,33.38
2023-02-11T15:31:26.430Z,31.33
2023-02-11T15:33:54.492Z,30.88
2023-02-11T15:36:28.691Z,33.17
2023-02-11T15:39:41.223Z,31.80
2023-02-11T15:42:19.809Z,29.55
2023-02-11T15:44:52.305Z,29.85
2023-02-11T15:47:23.317Z,31.70
2023-02-11T15:49:50.305Z,30.17
2023-02-11T15:52:25.208Z,29.63
2023-02-11T15:54:54.039Z,31.30
2023-02-11T15:57:22.110Z,30.73
2023-02-11T15:59:52.815Z,29.50
2023-02-11T16:02:32.619Z,26.45
2023-02-11T16:05:08.784Z,26.38
2023-02-11T16:10:16.214Z,25.77
2023-02-11T16:12:55.293Z,25.33
2023-02-11T16:15:35.099Z,26.45
2023-02-11T16:18:04.029Z,25.48
2023-02-11T16:20:31.149Z,25.73
2023-02-11T16:22:58.229Z,25.92
2023-02-11T16:25:25.155Z,24.95
2023-02-11T16:27:53.276Z,26.80
2023-02-11T16:30:34.782Z,25.75
2023-02-11T16:33:01.736Z,27.15
2023-02-11T16:35:28.531Z,27.77
2023-02-11T16:37:55.556Z,28.92
2023-02-11T16:40:23.610Z,29.00
2023-02-11T16:42:52.500Z,28.23
2023-02-11T16:45:19.621Z,30.80
2023-02-11T16:47:46.611Z,29.30
2023-02-11T16:50:22.546Z,29.38
2023-02-11T16:52:49.706Z,28.00
2023-02-11T16:55:16.545Z,26.30
2023-02-11T16:57:43.402Z,24.80
2023-02-11T17:00:15.568Z,27.48
2023-02-11T17:02:42.726Z,29.15
2023-02-11T17:05:18.943Z,27.83
2023-02-11T17:07:46.104Z,27.65
2023-02-11T17:10:22.081Z,27.90
2023-02-11T17:12:50.189Z,27.83
2023-02-11T17:15:17.239Z,30.52
2023-02-11T17:17:44.543Z,30.27
2023-02-11T17:20:12.798Z,30.02
2023-02-11T17:22:39.925Z,31.20
2023-02-11T17:25:06.865Z,32.78
2023-02-11T17:27:34.402Z,30.67
2023-02-11T17:30:01.240Z,29.73
2023-02-11T17:32:28.233Z,27.83
2023-02-11T17:34:55.277Z,29.40
2023-02-11T17:37:22.476Z,28.98
2023-02-11T17:39:51.045Z,29.90
2023-02-11T17:42:19.292Z,31.38
2023-02-11T17:44:46.679Z,30.95
2023-02-11T17:47:13.898Z,31.75
2023-02-11T17:49:41.079Z,33.53
2023-02-11T17:52:08.523Z,32.58
2023-02-11T17:54:35.646Z,30.08
2023-02-11T17:57:02.537Z,31.42
2023-02-11T17:59:35.383Z,32.28
2023-02-11T18:02:06.386Z,30.58
2023-02-11T18:04:33.674Z,29.95
2023-02-11T18:07:00.466Z,31.42
2023-02-11T18:09:27.367Z,27.55
2023-02-11T18:11:54.306Z,26.92
2023-02-11T18:14:22.376Z,29.20
2023-02-11T18:16:53.177Z,26.10
2023-02-11T18:19:20.755Z,27.95
2023-02-11T18:21:50.317Z,25.90
2023-02-11T18:24:17.687Z,25.42
2023-02-11T18:26:44.582Z,25.42
2023-02-11T18:29:11.530Z,25.17
2023-02-11T18:31:39.549Z,25.23
2023-02-11T18:34:07.880Z,24.23
2023-02-11T18:36:35.266Z,24.13
2023-02-11T18:39:02.790Z,24.67
2023-02-11T18:41:29.807Z,24.88
2023-02-11T18:43:58.629Z,23.45
2023-02-11T18:46:25.765Z,25.13
2023-02-11T18:48:55.947Z,24.90
2023-02-11T18:51:23.398Z,24.48
2023-02-11T18:53:50.462Z,24.45
2023-02-11T18:56:21.811Z,24.02
2023-02-11T18:58:51.407Z,24.98
2023-02-11T19:01:21.224Z,25.85
2023-02-11T19:03:48.340Z,24.20
2023-02-11T19:06:26.914Z,24.65
2023-02-11T19:08:57.573Z,25.00
2023-02-11T19:11:45.073Z,24.80
2023-02-11T19:16:43.468Z,24.42
2023-02-11T19:19:10.541Z,25.52
2023-02-11T19:21:37.377Z,25.70
2023-02-11T19:24:08.424Z,25.27
2023-02-11T19:26:36.699Z,24.63
2023-02-11T19:29:06.068Z,24.67
2023-02-11T19:31:33.485Z,25.98
2023-02-11T19:34:01.677Z,24.85
2023-02-11T19:36:29.296Z,25.33
2023-02-11T19:38:56.232Z,24.75
2023-02-11T19:41:23.367Z,25.58
2023-02-11T19:43:53.817Z,25.58
2023-02-11T19:46:22.060Z,25.13
2023-02-11T19:48:49.556Z,24.52
2023-02-11T19:51:17.521Z,25.48
2023-02-11T19:53:45.894Z,24.50
2023-02-11T19:56:13.970Z,24.35
2023-02-11T19:58:41.832Z,25.25
2023-02-11T20:01:29.134Z,25.77
2023-02-11T20:03:57.703Z,24.77
2023-02-11T20:06:28.180Z,24.42
2023-02-11T20:09:00.969Z,25.38
2023-02-11T20:11:32.855Z,26.13
2023-02-11T20:14:00.362Z,25.63
2023-02-11T20:16:45.116Z,26.00
2023-02-11T20:19:19.518Z,25.77
2023-02-11T20:21:48.499Z,26.25
2023-02-11T20:24:17.653Z,24.95
2023-02-11T20:26:46.939Z,26.13
2023-02-11T20:29:15.431Z,26.10
2023-02-11T20:31:42.917Z,26.05
2023-02-11T20:34:11.142Z,24.98
2023-02-11T20:36:39.280Z,26.65
2023-02-11T20:39:07.023Z,25.67
2023-02-11T20:41:36.176Z,24.27
2023-02-11T20:44:07.119Z,24.83
2023-02-11T20:46:36.876Z,23.85
2023-02-11T20:49:03.751Z,23.35
2023-02-11T20:51:32.886Z,24.98
2023-02-11T20:54:00.866Z,25.45
2023-02-11T20:56:30.477Z,23.98
2023-02-11T20:58:58.741Z,25.25
2023-02-11T21:01:32.009Z,23.63
2023-02-11T21:04:05.324Z,23.17
2023-02-11T21:06:37.753Z,24.30
2023-02-11T21:09:06.791Z,23.85
2023-02-11T21:11:34.311Z,24.35
2023-02-11T21:14:02.389Z,23.83
2023-02-11T21:16:29.727Z,24.85
2023-02-11T21:18:56.938Z,24.70
2023-02-11T21:21:24.421Z,23.15
2023-02-11T21:23:51.232Z,21.88
2023-02-11T21:26:18.397Z,21.25
2023-02-11T21:28:45.338Z,22.92
2023-02-11T21:31:42.006Z,21.55
2023-02-11T21:34:09.935Z,20.70
2023-02-11T21:36:36.805Z,21.10
2023-02-11T21:39:04.245Z,21.10
2023-02-11T21:41:31.161Z,20.65
2023-02-11T21:43:58.495Z,20.30
2023-02-11T21:46:25.558Z,20.10
2023-02-11T21:48:52.770Z,20.38
2023-02-11T21:51:22.459Z,22.30
2023-02-11T21:53:56.459Z,19.90
2023-02-11T21:56:26.386Z,19.58
2023-02-11T21:58:54.577Z,20.20
2023-02-11T22:01:30.840Z,19.23
2023-02-11T22:03:58.581Z,20.33
2023-02-11T22:06:30.841Z,24.05
2023-02-11T22:08:58.669Z,25.08
2023-02-11T22:11:25.563Z,24.02
2023-02-11T22:13:56.359Z,27.73
2023-02-11T22:16:24.477Z,28.70
2023-02-11T22:18:52.021Z,25.02
2023-02-11T22:21:21.691Z,22.38
2023-02-11T22:23:49.292Z,24.73
2023-02-11T22:26:19.433Z,19.88
2023-02-11T22:28:47.585Z,21.35
2023-02-11T22:31:19.671Z,21.77
2023-02-11T22:33:47.120Z,20.90
2023-02-11T22:36:22.752Z,20.85
2023-02-11T22:38:50.381Z,19.98
2023-02-11T22:41:18.100Z,21.95
2023-02-11T22:43:45.710Z,26.50
2023-02-11T22:46:16.407Z,26.67
2023-02-11T22:48:43.446Z,24.65
2023-02-11T22:51:13.618Z,24.92
2023-02-11T22:53:40.603Z,22.77
2023-02-11T22:56:09.622Z,18.65
2023-02-11T22:58:36.810Z,21.58
2023-02-11T23:01:05.535Z,22.63
2023-02-11T23:03:33.224Z,21.10
2023-02-11T23:06:00.734Z,21.45
2023-02-11T23:08:28.197Z,20.42
2023-02-11T23:10:55.334Z,17.40
2023-02-11T23:13:22.404Z,18.08
2023-02-11T23:15:49.229Z,17.77
2023-02-11T23:18:16.025Z,18.17
2023-02-11T23:20:44.040Z,17.67
2023-02-11T23:23:11.496Z,17.67
2023-02-11T23:25:43.756Z,16.90
2023-02-11T23:28:11.294Z,17.58
2023-02-11T23:30:38.611Z,16.60
2023-02-11T23:33:05.520Z,16.73
2023-02-11T23:35:32.814Z,20.15
2023-02-11T23:37:59.723Z,20.92
2023-02-11T23:40:26.564Z,18.60
2023-02-11T23:42:53.481Z,19.65
2023-02-11T23:45:20.468Z,18.92
2023-02-11T23:47:47.717Z,17.67
2023-02-11T23:50:15.149Z,22.40
2023-02-11T23:52:42.250Z,18.85
2023-02-11T23:55:09.890Z,18.65
2023-02-11T23:57:37.418Z,18.55
